Estación Meteorológica Peña el Pijo (Robertgarden) [ 12/15/17 20:50:53 CET ]

Fecha Hora Presion(HPa) Temp (°C) Humedad % Rocio (°C) Viento ( m/s) Direccion Lluvia 1Hora(mm) Lluvia 24H(mm) LLuvia Total(mm)
2017-Jun-02 01:01:42 1012.500 13.3 82 10.3       2.07 1414.65
2017-Jun-02 02:01:43 1012.100 13.0 83 10.1       2.07 1414.65
2017-Jun-02 03:01:35 1012.000 11.8 84 9.2       2.07 1414.65
2017-Jun-02 04:01:36 1011.500 11.3 85 8.8       2.07 1414.65
2017-Jun-02 05:01:35 1011.400 10.7 86 8.4       2.07 1414.65
2017-Jun-02 06:01:34 1011.400 10.4 87 8.3       2.07 1414.65
2017-Jun-02 07:01:44 1011.500 10.0 87 7.9       2.07 1414.65
2017-Jun-02 08:01:48 1011.700 11.8 89 10.0       2.07 1414.65
2017-Jun-02 09:01:58 1011.800 16.9 87 14.7       2.07 1414.65
2017-Jun-02 10:01:57 1011.600 22.7 63 15.3       2.07 1414.65
2017-Jun-02 11:02:08 1011.400 27.4 47 15.0       2.07 1414.65
2017-Jun-02 12:01:46 1011.300 29.9 38 14.0       2.07 1414.65
2017-Jun-02 13:01:42 1011.200 30.1 34 12.4       2.07 1414.65
2017-Jun-02 14:01:48 1010.900 30.1 34 12.4       2.07 1414.65
2017-Jun-02 15:01:53 1010.200 30.5 29 10.4       2.07 1414.65
2017-Jun-02 16:01:57 1009.700 30.2 30 10.8       2.07 1414.65
2017-Jun-02 17:01:49 1009.600 30.1 30 10.7         1414.65
2017-Jun-02 18:01:47 1009.200 29.6 33 11.6         1414.65
2017-Jun-02 19:01:53 1009.100 27.2 40 12.5 2.5 S     1414.65
2017-Jun-02 20:01:51 1009.300 24.8 46 12.4         1414.65
2017-Jun-02 21:01:50 1009.400 22.4 52 12.0         1414.65
2017-Jun-02 22:01:44 1009.700 19.9 61 12.1         1414.65
2017-Jun-02 23:01:54 1010.000 19.2 66 12.7         1414.65

Temperatura Máxima:30°    Temperatura Mínima:10°
Presión Máxima:1012.500 Hpa    Presión Mínima:1009.100 Hpa


Volver